< < Back
Terminal Aerodrome Forecast


Current Version              Previous Versions:   1  2  3  4  5  6  7  8  9  

Terminal Aerodrome Forecast

964
FTUS42 KMLB 031733
TAFDAB
TAF
KDAB 031733Z 0318/0418 30008KT P6SM VCSH SCT035 SCT250
     FM032000 36008KT P6SM VCTS SCT030CB BKN120
     FM040100 25003KT P6SM SCT120=



Latest METAR

090
SAUS80 KWBC 041400 RRA
MTRDAB
METAR KDAB 041353Z 31004KT 9SM FEW090 SCT150 BKN250 28/25 A2999 RMK AO2
RAB37E46 SLP153 P0000 T02780250


USA.gov is the U.S. government's official web portal to all federal, state and local government web resources and services.